createdAt,value
2023-03-26T00:02:29.820Z,8.04
2023-03-26T00:04:57.917Z,7.99
2023-03-26T00:07:27.952Z,8.02
2023-03-26T00:09:57.901Z,8.06
2023-03-26T00:12:26.292Z,7.96
2023-03-26T00:14:54.191Z,7.93
2023-03-26T00:17:22.585Z,7.91
2023-03-26T00:19:53.645Z,7.84
2023-03-26T00:22:23.573Z,7.84
2023-03-26T00:24:51.496Z,7.75
2023-03-26T00:27:19.348Z,7.67
2023-03-26T00:29:48.246Z,7.64
2023-03-26T00:32:16.817Z,7.65
2023-03-26T00:34:46.183Z,7.58
2023-03-26T00:37:15.507Z,7.57
2023-03-26T00:39:44.584Z,7.61
2023-03-26T00:42:14.758Z,7.72
2023-03-26T00:44:42.604Z,7.69
2023-03-26T00:47:10.942Z,7.69
2023-03-26T00:49:39.346Z,7.80
2023-03-26T00:52:08.697Z,7.82
2023-03-26T00:54:38.015Z,7.80
2023-03-26T00:57:06.734Z,7.64
2023-03-26T00:59:35.770Z,7.73
2023-03-26T01:02:04.586Z,7.57
2023-03-26T01:04:37.502Z,7.65
2023-03-26T01:07:12.728Z,7.63
2023-03-26T01:09:50.181Z,7.53
2023-03-26T01:12:22.940Z,7.58
2023-03-26T01:14:52.742Z,7.57
2023-03-26T01:17:22.033Z,7.62
2023-03-26T01:19:55.361Z,7.57
2023-03-26T01:22:25.824Z,7.56
2023-03-26T01:24:56.625Z,7.47
2023-03-26T01:27:33.520Z,7.56
2023-03-26T01:30:10.513Z,7.61
2023-03-26T01:32:49.474Z,7.59
2023-03-26T01:35:31.031Z,7.59
2023-03-26T01:38:10.557Z,7.76
2023-03-26T01:40:47.026Z,7.77
2023-03-26T01:43:26.375Z,7.73
2023-03-26T01:45:57.143Z,7.76
2023-03-26T01:48:30.675Z,7.90
2023-03-26T01:50:58.831Z,7.82
2023-03-26T01:53:27.144Z,7.74
2023-03-26T01:56:06.933Z,7.75
2023-03-26T01:58:42.626Z,7.79
2023-03-26T02:01:24.314Z,7.66
2023-03-26T02:03:58.808Z,7.58
2023-03-26T02:06:31.328Z,7.63
2023-03-26T02:09:04.404Z,7.63
2023-03-26T02:11:38.149Z,7.61
2023-03-26T02:14:08.134Z,7.43
2023-03-26T02:16:36.449Z,7.41
2023-03-26T02:19:15.955Z,7.37
2023-03-26T02:21:44.056Z,7.36
2023-03-26T02:24:13.932Z,7.34
2023-03-26T02:26:45.197Z,7.34
2023-03-26T02:29:19.404Z,7.50
2023-03-26T02:31:49.341Z,7.43
2023-03-26T02:34:18.092Z,7.41
2023-03-26T02:36:54.084Z,7.42
2023-03-26T02:39:22.161Z,7.39
2023-03-26T02:41:59.018Z,7.37
2023-03-26T02:44:28.248Z,7.32
2023-03-26T02:46:58.915Z,7.24
2023-03-26T02:49:49.634Z,7.30
2023-03-26T02:52:24.875Z,7.28
2023-03-26T02:54:54.706Z,7.36
2023-03-26T02:57:25.980Z,7.43
2023-03-26T03:00:13.282Z,7.46
2023-03-26T03:02:47.942Z,7.48
2023-03-26T03:05:32.107Z,7.50
2023-03-26T03:08:19.276Z,7.46
2023-03-26T03:11:03.754Z,7.47
2023-03-26T03:13:41.123Z,7.54
2023-03-26T03:16:10.315Z,7.59
2023-03-26T03:18:38.201Z,7.64
2023-03-26T03:21:07.308Z,7.60
2023-03-26T03:23:35.526Z,7.60
2023-03-26T03:26:16.746Z,7.61
2023-03-26T03:28:52.124Z,7.64
2023-03-26T03:31:19.992Z,7.81
2023-03-26T03:33:48.217Z,7.83
2023-03-26T03:36:22.038Z,7.81
2023-03-26T03:39:02.456Z,7.76
2023-03-26T03:41:31.175Z,7.67
2023-03-26T03:44:02.939Z,7.88
2023-03-26T03:46:32.736Z,7.82
2023-03-26T03:49:00.788Z,7.71
2023-03-26T03:51:35.191Z,7.63
2023-03-26T03:54:06.058Z,7.65
2023-03-26T03:57:02.083Z,7.82
2023-03-26T03:59:33.959Z,7.68
2023-03-26T04:02:04.658Z,7.67
2023-03-26T04:04:50.093Z,7.60
2023-03-26T04:07:20.515Z,7.59
2023-03-26T04:10:10.589Z,7.66
2023-03-26T04:12:57.007Z,7.63
2023-03-26T04:15:42.940Z,7.60
2023-03-26T04:18:11.726Z,7.61
2023-03-26T04:20:46.556Z,7.64
2023-03-26T04:23:21.136Z,7.72
2023-03-26T04:25:54.722Z,7.68
2023-03-26T04:28:36.209Z,7.62
2023-03-26T04:31:32.034Z,7.58
2023-03-26T04:34:08.059Z,7.62
2023-03-26T04:36:46.303Z,7.64
2023-03-26T04:39:15.287Z,7.76
2023-03-26T04:42:08.697Z,7.67
2023-03-26T04:44:50.702Z,7.68
2023-03-26T04:47:20.334Z,7.62
2023-03-26T04:49:48.826Z,7.76
2023-03-26T04:52:18.520Z,7.71
2023-03-26T04:54:58.827Z,7.76
2023-03-26T04:57:36.715Z,7.72
2023-03-26T05:00:14.851Z,7.65
2023-03-26T05:02:45.829Z,7.62
2023-03-26T05:05:14.050Z,7.66
2023-03-26T05:07:44.460Z,7.67
2023-03-26T05:10:20.326Z,7.64
2023-03-26T05:12:55.652Z,7.67
2023-03-26T05:15:27.523Z,7.62
2023-03-26T05:17:59.749Z,7.66
2023-03-26T05:20:32.476Z,7.66
2023-03-26T05:23:00.353Z,7.67
2023-03-26T05:25:34.859Z,7.64
2023-03-26T05:28:04.741Z,7.72
2023-03-26T05:30:49.924Z,7.69
2023-03-26T05:33:19.340Z,7.74
2023-03-26T05:36:03.125Z,7.79
2023-03-26T05:38:32.943Z,7.82
2023-03-26T05:41:04.040Z,7.85
2023-03-26T05:43:32.771Z,7.79
2023-03-26T05:46:13.412Z,7.87
2023-03-26T05:48:44.548Z,7.88
2023-03-26T05:51:13.014Z,7.87
2023-03-26T05:53:44.563Z,7.95
2023-03-26T05:56:36.004Z,7.91
2023-03-26T05:59:22.630Z,7.92
2023-03-26T06:02:10.649Z,8.04
2023-03-26T06:04:58.850Z,7.98
2023-03-26T06:07:45.273Z,7.89
2023-03-26T06:10:19.237Z,7.90
2023-03-26T06:12:47.650Z,7.93
2023-03-26T06:15:15.958Z,7.94
2023-03-26T06:17:49.700Z,7.95
2023-03-26T06:20:46.436Z,7.93
2023-03-26T06:23:31.668Z,7.96
2023-03-26T06:26:19.024Z,8.00
2023-03-26T06:29:09.518Z,8.03
2023-03-26T06:31:48.888Z,8.06
2023-03-26T06:34:22.819Z,8.09
2023-03-26T06:36:52.955Z,8.16
2023-03-26T06:39:22.404Z,8.19
2023-03-26T06:42:16.683Z,8.18
2023-03-26T06:45:09.041Z,8.30
2023-03-26T06:47:55.571Z,8.37
2023-03-26T06:50:50.408Z,8.30
2023-03-26T06:53:38.031Z,8.39
2023-03-26T06:56:26.246Z,8.58
2023-03-26T06:59:06.804Z,8.64
2023-03-26T07:01:53.248Z,8.62
2023-03-26T07:04:59.333Z,8.76
2023-03-26T07:07:46.307Z,8.91
2023-03-26T07:10:34.768Z,9.01
2023-03-26T07:13:11.826Z,9.00
2023-03-26T07:16:02.645Z,9.09
2023-03-26T07:18:49.077Z,9.16
2023-03-26T07:21:22.592Z,9.23
2023-03-26T07:23:51.593Z,9.24
2023-03-26T07:26:48.997Z,9.13
2023-03-26T07:29:27.603Z,9.04
2023-03-26T07:32:19.177Z,9.06
2023-03-26T07:34:58.266Z,9.14
2023-03-26T07:37:44.838Z,9.29
2023-03-26T07:40:53.213Z,9.48
2023-03-26T07:44:11.521Z,9.48
2023-03-26T07:46:53.318Z,9.41
2023-03-26T07:49:37.628Z,9.41
2023-03-26T07:52:28.298Z,9.57
2023-03-26T07:55:08.367Z,9.55
2023-03-26T07:58:12.697Z,9.65
2023-03-26T08:00:57.778Z,9.61
2023-03-26T08:03:42.238Z,9.59
2023-03-26T08:06:36.191Z,9.77
2023-03-26T08:09:35.170Z,9.86
2023-03-26T08:12:27.297Z,9.98
2023-03-26T08:15:05.119Z,9.94
2023-03-26T08:17:42.741Z,9.94
2023-03-26T08:20:25.088Z,9.76
2023-03-26T08:23:02.100Z,9.82
2023-03-26T08:25:34.841Z,9.88
2023-03-26T08:28:23.217Z,9.74
2023-03-26T08:30:54.999Z,9.54
2023-03-26T08:33:28.158Z,9.38
2023-03-26T08:35:56.291Z,9.50
2023-03-26T08:38:24.748Z,9.71
2023-03-26T08:41:42.363Z,9.73
2023-03-26T08:44:47.561Z,9.60
2023-03-26T08:47:55.607Z,9.64
2023-03-26T08:50:49.480Z,9.63
2023-03-26T08:53:51.409Z,9.65
2023-03-26T08:56:24.555Z,9.69
2023-03-26T08:59:19.173Z,9.84
2023-03-26T09:02:20.597Z,9.91
2023-03-26T09:05:19.835Z,10.05
2023-03-26T09:08:17.113Z,10.22
2023-03-26T09:10:58.604Z,10.26
2023-03-26T09:13:49.626Z,10.32
2023-03-26T09:16:59.123Z,10.27
2023-03-26T09:19:53.409Z,10.26
2023-03-26T09:23:00.323Z,10.56
2023-03-26T09:25:57.707Z,10.64
2023-03-26T09:28:58.222Z,10.60
2023-03-26T09:31:57.775Z,10.48
2023-03-26T09:34:33.081Z,10.67
2023-03-26T09:37:18.783Z,11.04
2023-03-26T09:40:01.975Z,11.15
2023-03-26T09:42:39.889Z,10.89
2023-03-26T09:45:41.769Z,11.10
2023-03-26T09:48:45.787Z,10.71
2023-03-26T09:51:32.227Z,10.27
2023-03-26T09:54:33.803Z,10.40
2023-03-26T09:57:11.855Z,10.02
2023-03-26T10:00:01.622Z,9.53
2023-03-26T10:02:45.499Z,9.48
2023-03-26T10:05:41.506Z,9.23
2023-03-26T10:08:32.659Z,9.24
2023-03-26T10:11:06.312Z,9.10
2023-03-26T10:13:49.147Z,9.13
2023-03-26T10:16:27.133Z,8.98
2023-03-26T10:19:11.899Z,9.10
2023-03-26T10:21:46.934Z,9.04
2023-03-26T10:24:29.148Z,9.01
2023-03-26T10:27:25.286Z,9.10
2023-03-26T10:30:25.871Z,9.17
2023-03-26T10:33:05.944Z,9.22
2023-03-26T10:35:46.246Z,9.10
2023-03-26T10:38:23.428Z,9.09
2023-03-26T10:41:05.893Z,9.10
2023-03-26T10:44:07.379Z,8.99
2023-03-26T10:46:52.181Z,8.98
2023-03-26T10:49:55.949Z,8.92
2023-03-26T10:52:26.143Z,8.94
2023-03-26T10:54:57.237Z,9.10
2023-03-26T10:57:39.205Z,9.14
2023-03-26T11:00:16.954Z,9.09
2023-03-26T11:02:55.653Z,9.07
2023-03-26T11:05:47.490Z,9.08
2023-03-26T11:08:31.768Z,9.18
2023-03-26T11:11:06.432Z,9.24
2023-03-26T11:13:46.930Z,9.27
2023-03-26T11:16:22.971Z,9.51
2023-03-26T11:18:57.400Z,9.33
2023-03-26T11:21:34.503Z,9.52
2023-03-26T11:24:24.131Z,9.55
2023-03-26T11:26:57.053Z,9.34
2023-03-26T11:29:50.789Z,9.17
2023-03-26T11:32:23.186Z,9.15
2023-03-26T11:34:59.715Z,9.22
2023-03-26T11:37:33.725Z,9.43
2023-03-26T11:40:06.668Z,9.33
2023-03-26T11:42:34.916Z,9.24
2023-03-26T11:45:06.573Z,9.21
2023-03-26T11:47:43.679Z,9.61
2023-03-26T11:50:17.956Z,9.41
2023-03-26T11:52:47.894Z,9.33
2023-03-26T11:55:16.202Z,9.23
2023-03-26T11:57:51.030Z,9.19
2023-03-26T12:00:21.365Z,9.17
2023-03-26T12:02:50.813Z,9.51
2023-03-26T12:05:21.223Z,9.53
2023-03-26T12:07:58.538Z,9.36
2023-03-26T12:10:30.986Z,9.27
2023-03-26T12:13:01.345Z,9.23
2023-03-26T12:15:32.009Z,9.35
2023-03-26T12:18:18.738Z,9.35
2023-03-26T12:20:48.164Z,9.37
2023-03-26T12:23:37.610Z,9.38
2023-03-26T12:26:16.064Z,9.32
2023-03-26T12:28:48.603Z,9.41
2023-03-26T12:31:19.525Z,9.26
2023-03-26T12:34:07.627Z,9.17
2023-03-26T12:36:38.980Z,9.13
2023-03-26T12:40:07.269Z,9.03
2023-03-26T12:44:47.592Z,9.11
2023-03-26T12:45:17.225Z,9.15
2023-03-26T12:47:59.507Z,9.17
2023-03-26T12:50:43.233Z,9.47
2023-03-26T12:53:27.058Z,9.42
2023-03-26T12:56:09.329Z,9.18
2023-03-26T12:58:59.250Z,9.07
2023-03-26T13:01:37.123Z,8.89
2023-03-26T13:05:02.341Z,8.34
2023-03-26T13:07:54.686Z,8.31
2023-03-26T13:10:40.459Z,8.42
2023-03-26T13:13:45.583Z,8.26
2023-03-26T13:16:24.912Z,7.89
2023-03-26T13:18:56.594Z,7.82
2023-03-26T13:21:36.067Z,7.95
2023-03-26T13:24:16.710Z,8.04
2023-03-26T13:26:57.849Z,7.94
2023-03-26T13:29:38.729Z,8.14
2023-03-26T13:32:16.308Z,7.97
2023-03-26T13:35:01.959Z,8.13
2023-03-26T13:37:36.100Z,8.10
2023-03-26T13:40:22.271Z,8.21
2023-03-26T13:43:06.639Z,8.14
2023-03-26T13:45:47.489Z,8.23
2023-03-26T13:48:20.219Z,8.52
2023-03-26T13:50:57.986Z,8.51
2023-03-26T13:53:31.644Z,8.65
2023-03-26T13:56:01.361Z,8.73
2023-03-26T13:58:36.863Z,8.69
2023-03-26T14:01:12.326Z,8.65
2023-03-26T15:42:54.506Z,6.91
2023-03-26T15:45:42.665Z,6.97
2023-03-26T15:48:37.421Z,6.90
2023-03-26T15:51:46.423Z,6.80
2023-03-26T15:54:47.009Z,6.78
2023-03-26T15:57:39.119Z,6.79
2023-03-26T16:00:31.856Z,6.69
2023-03-26T16:03:34.418Z,6.80
2023-03-26T16:06:35.782Z,6.85
2023-03-26T16:09:38.748Z,6.82
2023-03-26T16:12:31.804Z,6.69
2023-03-26T16:15:32.302Z,6.76
2023-03-26T16:18:33.950Z,6.66
2023-03-26T16:21:56.092Z,6.74
2023-03-26T16:24:47.518Z,6.75
2023-03-26T16:27:43.093Z,6.77
2023-03-26T16:30:33.036Z,6.81
2023-03-26T16:33:21.597Z,6.73
2023-03-26T16:36:25.885Z,6.68
2023-03-26T16:39:22.249Z,6.70
2023-03-26T16:42:37.008Z,6.60
2023-03-26T16:45:19.062Z,6.67
